sensor_id;sensor_type;location;lat;lon;timestamp;P1;durP1;ratioP1;P2;durP2;ratioP2
5167;SDS011;2603;48.918;8.980;2022-12-08T00:01:12;17.67;;;9.80;;
5167;SDS011;2603;48.918;8.980;2022-12-08T00:03:39;19.43;;;10.60;;
5167;SDS011;2603;48.918;8.980;2022-12-08T00:06:07;17.73;;;10.43;;
5167;SDS011;2603;48.918;8.980;2022-12-08T00:08:59;21.47;;;9.83;;
5167;SDS011;2603;48.918;8.980;2022-12-08T00:11:43;18.90;;;11.03;;
5167;SDS011;2603;48.918;8.980;2022-12-08T00:14:10;21.00;;;11.53;;
5167;SDS011;2603;48.918;8.980;2022-12-08T00:16:36;17.13;;;10.60;;
5167;SDS011;2603;48.918;8.980;2022-12-08T00:19:03;21.40;;;11.10;;
5167;SDS011;2603;48.918;8.980;2022-12-08T00:21:29;19.30;;;9.87;;
5167;SDS011;2603;48.918;8.980;2022-12-08T00:23:56;15.77;;;9.83;;
5167;SDS011;2603;48.918;8.980;2022-12-08T00:26:24;16.83;;;9.60;;
5167;SDS011;2603;48.918;8.980;2022-12-08T00:28:50;18.83;;;10.77;;
5167;SDS011;2603;48.918;8.980;2022-12-08T00:31:17;18.37;;;10.97;;
5167;SDS011;2603;48.918;8.980;2022-12-08T00:33:43;20.80;;;11.03;;
5167;SDS011;2603;48.918;8.980;2022-12-08T00:36:11;20.63;;;11.37;;
5167;SDS011;2603;48.918;8.980;2022-12-08T00:38:39;19.77;;;12.20;;
5167;SDS011;2603;48.918;8.980;2022-12-08T00:41:08;20.30;;;10.80;;
5167;SDS011;2603;48.918;8.980;2022-12-08T00:43:39;18.17;;;10.33;;
5167;SDS011;2603;48.918;8.980;2022-12-08T00:46:05;16.90;;;10.00;;
5167;SDS011;2603;48.918;8.980;2022-12-08T00:48:32;17.73;;;10.20;;
5167;SDS011;2603;48.918;8.980;2022-12-08T00:50:59;17.67;;;10.43;;
5167;SDS011;2603;48.918;8.980;2022-12-08T00:53:25;20.13;;;9.80;;
5167;SDS011;2603;48.918;8.980;2022-12-08T00:55:52;19.90;;;11.33;;
5167;SDS011;2603;48.918;8.980;2022-12-08T00:58:18;20.17;;;11.67;;
5167;SDS011;2603;48.918;8.980;2022-12-08T01:00:46;18.33;;;11.03;;
5167;SDS011;2603;48.918;8.980;2022-12-08T01:03:13;16.13;;;10.00;;
5167;SDS011;2603;48.918;8.980;2022-12-08T01:05:39;20.17;;;11.57;;
5167;SDS011;2603;48.918;8.980;2022-12-08T01:08:08;17.70;;;10.30;;
5167;SDS011;2603;48.918;8.980;2022-12-08T01:10:35;18.30;;;9.97;;
5167;SDS011;2603;48.918;8.980;2022-12-08T01:13:01;15.60;;;9.60;;
5167;SDS011;2603;48.918;8.980;2022-12-08T01:15:28;15.97;;;10.90;;
5167;SDS011;2603;48.918;8.980;2022-12-08T01:17:56;16.87;;;10.30;;
5167;SDS011;2603;48.918;8.980;2022-12-08T01:20:22;22.17;;;12.20;;
5167;SDS011;2603;48.918;8.980;2022-12-08T01:22:49;19.93;;;10.80;;
5167;SDS011;2603;48.918;8.980;2022-12-08T01:25:15;16.00;;;9.77;;
5167;SDS011;2603;48.918;8.980;2022-12-08T01:27:42;20.43;;;10.30;;
5167;SDS011;2603;48.918;8.980;2022-12-08T01:30:09;17.63;;;10.90;;
5167;SDS011;2603;48.918;8.980;2022-12-08T01:32:37;18.27;;;9.77;;
5167;SDS011;2603;48.918;8.980;2022-12-08T01:35:05;16.63;;;9.80;;
5167;SDS011;2603;48.918;8.980;2022-12-08T01:37:32;17.97;;;9.20;;
5167;SDS011;2603;48.918;8.980;2022-12-08T01:39:58;17.43;;;9.93;;
5167;SDS011;2603;48.918;8.980;2022-12-08T01:42:25;19.77;;;9.93;;
5167;SDS011;2603;48.918;8.980;2022-12-08T01:44:52;17.53;;;9.80;;
5167;SDS011;2603;48.918;8.980;2022-12-08T01:47:23;19.90;;;10.80;;
5167;SDS011;2603;48.918;8.980;2022-12-08T01:49:52;16.27;;;9.83;;
5167;SDS011;2603;48.918;8.980;2022-12-08T01:52:21;16.80;;;9.47;;
5167;SDS011;2603;48.918;8.980;2022-12-08T01:54:51;15.93;;;10.47;;
5167;SDS011;2603;48.918;8.980;2022-12-08T01:57:19;17.17;;;9.33;;
5167;SDS011;2603;48.918;8.980;2022-12-08T01:59:48;15.97;;;9.40;;
5167;SDS011;2603;48.918;8.980;2022-12-08T02:02:18;16.50;;;9.23;;
5167;SDS011;2603;48.918;8.980;2022-12-08T02:04:45;16.20;;;9.57;;
5167;SDS011;2603;48.918;8.980;2022-12-08T02:07:11;16.50;;;9.33;;
5167;SDS011;2603;48.918;8.980;2022-12-08T02:09:40;19.60;;;10.70;;
5167;SDS011;2603;48.918;8.980;2022-12-08T02:12:07;15.80;;;10.37;;
5167;SDS011;2603;48.918;8.980;2022-12-08T02:14:34;14.03;;;9.93;;
5167;SDS011;2603;48.918;8.980;2022-12-08T02:17:02;19.70;;;11.57;;
5167;SDS011;2603;48.918;8.980;2022-12-08T02:19:35;18.13;;;9.70;;
5167;SDS011;2603;48.918;8.980;2022-12-08T02:22:15;17.03;;;9.63;;
5167;SDS011;2603;48.918;8.980;2022-12-08T02:24:49;17.33;;;10.30;;
5167;SDS011;2603;48.918;8.980;2022-12-08T02:27:28;18.50;;;9.80;;
5167;SDS011;2603;48.918;8.980;2022-12-08T02:30:04;16.90;;;10.10;;
5167;SDS011;2603;48.918;8.980;2022-12-08T02:33:00;18.83;;;10.20;;
5167;SDS011;2603;48.918;8.980;2022-12-08T02:35:40;19.10;;;11.50;;
5167;SDS011;2603;48.918;8.980;2022-12-08T02:38:12;14.47;;;10.20;;
5167;SDS011;2603;48.918;8.980;2022-12-08T02:40:43;19.83;;;9.77;;
5167;SDS011;2603;48.918;8.980;2022-12-08T02:43:16;19.33;;;10.70;;
5167;SDS011;2603;48.918;8.980;2022-12-08T02:45:47;19.00;;;9.97;;
5167;SDS011;2603;48.918;8.980;2022-12-08T02:48:16;16.80;;;10.47;;
5167;SDS011;2603;48.918;8.980;2022-12-08T02:50:43;17.80;;;10.33;;
5167;SDS011;2603;48.918;8.980;2022-12-08T02:53:10;18.60;;;11.60;;
5167;SDS011;2603;48.918;8.980;2022-12-08T02:55:39;18.27;;;10.30;;
5167;SDS011;2603;48.918;8.980;2022-12-08T02:58:21;15.53;;;10.73;;
5167;SDS011;2603;48.918;8.980;2022-12-08T03:01:04;15.63;;;10.27;;
5167;SDS011;2603;48.918;8.980;2022-12-08T03:03:40;17.60;;;9.70;;
5167;SDS011;2603;48.918;8.980;2022-12-08T03:06:14;18.63;;;11.27;;
5167;SDS011;2603;48.918;8.980;2022-12-08T03:08:49;16.83;;;9.33;;
5167;SDS011;2603;48.918;8.980;2022-12-08T03:11:18;23.00;;;10.60;;
5167;SDS011;2603;48.918;8.980;2022-12-08T03:13:48;19.50;;;10.47;;
5167;SDS011;2603;48.918;8.980;2022-12-08T03:16:23;18.43;;;10.70;;
5167;SDS011;2603;48.918;8.980;2022-12-08T03:18:51;19.13;;;10.23;;
5167;SDS011;2603;48.918;8.980;2022-12-08T03:21:23;18.80;;;10.73;;
5167;SDS011;2603;48.918;8.980;2022-12-08T03:23:51;15.80;;;9.87;;
5167;SDS011;2603;48.918;8.980;2022-12-08T03:26:21;15.30;;;9.40;;
5167;SDS011;2603;48.918;8.980;2022-12-08T03:28:50;17.53;;;10.30;;
5167;SDS011;2603;48.918;8.980;2022-12-08T03:31:16;18.63;;;11.03;;
5167;SDS011;2603;48.918;8.980;2022-12-08T03:33:44;19.33;;;10.60;;
5167;SDS011;2603;48.918;8.980;2022-12-08T03:36:15;17.50;;;10.70;;
5167;SDS011;2603;48.918;8.980;2022-12-08T03:38:44;17.43;;;10.63;;
5167;SDS011;2603;48.918;8.980;2022-12-08T03:41:11;15.70;;;10.07;;
5167;SDS011;2603;48.918;8.980;2022-12-08T03:43:43;18.10;;;9.60;;
5167;SDS011;2603;48.918;8.980;2022-12-08T03:46:10;17.37;;;11.17;;
5167;SDS011;2603;48.918;8.980;2022-12-08T03:48:37;20.50;;;9.67;;
5167;SDS011;2603;48.918;8.980;2022-12-08T03:51:03;17.27;;;10.10;;
5167;SDS011;2603;48.918;8.980;2022-12-08T03:53:30;15.90;;;10.47;;
5167;SDS011;2603;48.918;8.980;2022-12-08T03:55:57;14.77;;;8.93;;
5167;SDS011;2603;48.918;8.980;2022-12-08T03:58:24;15.93;;;9.03;;
5167;SDS011;2603;48.918;8.980;2022-12-08T04:00:51;15.03;;;8.67;;
5167;SDS011;2603;48.918;8.980;2022-12-08T04:03:17;13.43;;;8.50;;
5167;SDS011;2603;48.918;8.980;2022-12-08T04:05:44;15.10;;;9.67;;
5167;SDS011;2603;48.918;8.980;2022-12-08T04:08:10;17.47;;;9.40;;
5167;SDS011;2603;48.918;8.980;2022-12-08T04:10:37;19.40;;;8.20;;
5167;SDS011;2603;48.918;8.980;2022-12-08T04:13:05;19.37;;;9.67;;
5167;SDS011;2603;48.918;8.980;2022-12-08T04:15:31;16.20;;;9.07;;
5167;SDS011;2603;48.918;8.980;2022-12-08T04:17:58;16.50;;;9.40;;
5167;SDS011;2603;48.918;8.980;2022-12-08T04:20:24;16.57;;;9.30;;
5167;SDS011;2603;48.918;8.980;2022-12-08T04:22:51;17.87;;;9.47;;
5167;SDS011;2603;48.918;8.980;2022-12-08T04:25:17;15.67;;;9.00;;
5167;SDS011;2603;48.918;8.980;2022-12-08T04:27:44;15.13;;;8.37;;
5167;SDS011;2603;48.918;8.980;2022-12-08T04:30:12;18.57;;;9.03;;
5167;SDS011;2603;48.918;8.980;2022-12-08T04:32:38;17.40;;;10.20;;
5167;SDS011;2603;48.918;8.980;2022-12-08T04:35:05;15.27;;;9.23;;
5167;SDS011;2603;48.918;8.980;2022-12-08T04:37:32;15.40;;;9.10;;
5167;SDS011;2603;48.918;8.980;2022-12-08T04:39:58;20.03;;;9.60;;
5167;SDS011;2603;48.918;8.980;2022-12-08T04:42:25;15.43;;;9.17;;
5167;SDS011;2603;48.918;8.980;2022-12-08T04:44:51;19.70;;;10.87;;
5167;SDS011;2603;48.918;8.980;2022-12-08T04:47:19;22.53;;;12.57;;
5167;SDS011;2603;48.918;8.980;2022-12-08T04:49:46;26.83;;;15.30;;
5167;SDS011;2603;48.918;8.980;2022-12-08T04:52:13;20.40;;;12.23;;
5167;SDS011;2603;48.918;8.980;2022-12-08T04:54:39;24.27;;;12.47;;
5167;SDS011;2603;48.918;8.980;2022-12-08T04:57:06;21.53;;;11.97;;
5167;SDS011;2603;48.918;8.980;2022-12-08T04:59:32;20.40;;;11.73;;
5167;SDS011;2603;48.918;8.980;2022-12-08T05:01:59;19.83;;;10.20;;
5167;SDS011;2603;48.918;8.980;2022-12-08T05:04:26;24.97;;;10.90;;
5167;SDS011;2603;48.918;8.980;2022-12-08T05:06:53;19.13;;;10.93;;
5167;SDS011;2603;48.918;8.980;2022-12-08T05:09:19;27.00;;;13.20;;
5167;SDS011;2603;48.918;8.980;2022-12-08T05:11:46;43.17;;;20.33;;
5167;SDS011;2603;48.918;8.980;2022-12-08T05:14:13;22.60;;;12.50;;
5167;SDS011;2603;48.918;8.980;2022-12-08T05:16:40;38.30;;;16.47;;
5167;SDS011;2603;48.918;8.980;2022-12-08T05:19:07;24.13;;;13.70;;
5167;SDS011;2603;48.918;8.980;2022-12-08T05:21:35;44.10;;;23.73;;
5167;SDS011;2603;48.918;8.980;2022-12-08T05:24:02;36.70;;;17.97;;
5167;SDS011;2603;48.918;8.980;2022-12-08T05:26:29;28.60;;;15.40;;
5167;SDS011;2603;48.918;8.980;2022-12-08T05:28:55;24.87;;;13.97;;
5167;SDS011;2603;48.918;8.980;2022-12-08T05:31:22;27.23;;;15.93;;
5167;SDS011;2603;48.918;8.980;2022-12-08T05:33:49;18.80;;;11.40;;
5167;SDS011;2603;48.918;8.980;2022-12-08T05:36:18;20.83;;;11.30;;
5167;SDS011;2603;48.918;8.980;2022-12-08T05:38:46;19.20;;;10.93;;
5167;SDS011;2603;48.918;8.980;2022-12-08T05:41:14;22.07;;;12.40;;
5167;SDS011;2603;48.918;8.980;2022-12-08T05:43:41;19.90;;;13.50;;
5167;SDS011;2603;48.918;8.980;2022-12-08T05:46:08;24.13;;;13.10;;
5167;SDS011;2603;48.918;8.980;2022-12-08T05:48:35;27.83;;;16.53;;
5167;SDS011;2603;48.918;8.980;2022-12-08T05:51:02;23.47;;;14.00;;
5167;SDS011;2603;48.918;8.980;2022-12-08T05:53:28;19.93;;;12.10;;
5167;SDS011;2603;48.918;8.980;2022-12-08T05:55:56;31.80;;;17.40;;
5167;SDS011;2603;48.918;8.980;2022-12-08T05:58:23;23.47;;;14.37;;
5167;SDS011;2603;48.918;8.980;2022-12-08T06:00:49;29.30;;;16.10;;
5167;SDS011;2603;48.918;8.980;2022-12-08T06:03:17;28.43;;;14.93;;
5167;SDS011;2603;48.918;8.980;2022-12-08T06:05:44;29.40;;;15.83;;
5167;SDS011;2603;48.918;8.980;2022-12-08T06:08:11;25.30;;;13.80;;
5167;SDS011;2603;48.918;8.980;2022-12-08T06:10:38;26.83;;;13.50;;
5167;SDS011;2603;48.918;8.980;2022-12-08T06:13:06;29.40;;;13.87;;
5167;SDS011;2603;48.918;8.980;2022-12-08T06:15:33;27.30;;;13.80;;
5167;SDS011;2603;48.918;8.980;2022-12-08T06:18:00;24.30;;;13.47;;
5167;SDS011;2603;48.918;8.980;2022-12-08T06:20:26;25.73;;;13.80;;
5167;SDS011;2603;48.918;8.980;2022-12-08T06:22:53;33.20;;;16.70;;
5167;SDS011;2603;48.918;8.980;2022-12-08T06:25:19;36.07;;;17.73;;
5167;SDS011;2603;48.918;8.980;2022-12-08T06:27:46;24.70;;;14.43;;
5167;SDS011;2603;48.918;8.980;2022-12-08T06:32:42;35.77;;;18.23;;
5167;SDS011;2603;48.918;8.980;2022-12-08T06:35:08;97.23;;;39.60;;
5167;SDS011;2603;48.918;8.980;2022-12-08T06:37:35;67.33;;;30.83;;
5167;SDS011;2603;48.918;8.980;2022-12-08T06:40:02;55.50;;;27.60;;
5167;SDS011;2603;48.918;8.980;2022-12-08T06:42:29;44.37;;;23.23;;
5167;SDS011;2603;48.918;8.980;2022-12-08T06:45:12;48.10;;;23.70;;
5167;SDS011;2603;48.918;8.980;2022-12-08T06:47:41;33.10;;;17.40;;
5167;SDS011;2603;48.918;8.980;2022-12-08T06:50:09;27.33;;;15.93;;
5167;SDS011;2603;48.918;8.980;2022-12-08T06:52:36;22.63;;;14.50;;
5167;SDS011;2603;48.918;8.980;2022-12-08T06:55:05;25.87;;;14.13;;
5167;SDS011;2603;48.918;8.980;2022-12-08T06:57:32;25.80;;;14.13;;
5167;SDS011;2603;48.918;8.980;2022-12-08T06:59:59;22.77;;;14.00;;
5167;SDS011;2603;48.918;8.980;2022-12-08T07:02:25;20.50;;;13.50;;
5167;SDS011;2603;48.918;8.980;2022-12-08T07:04:53;21.90;;;13.17;;
5167;SDS011;2603;48.918;8.980;2022-12-08T07:07:20;22.23;;;14.43;;
5167;SDS011;2603;48.918;8.980;2022-12-08T07:09:46;25.40;;;13.63;;
5167;SDS011;2603;48.918;8.980;2022-12-08T07:12:13;24.70;;;12.53;;
5167;SDS011;2603;48.918;8.980;2022-12-08T07:14:39;19.43;;;11.07;;
5167;SDS011;2603;48.918;8.980;2022-12-08T07:17:06;26.87;;;11.33;;
5167;SDS011;2603;48.918;8.980;2022-12-08T07:19:32;24.10;;;12.47;;
5167;SDS011;2603;48.918;8.980;2022-12-08T07:22:00;16.70;;;10.67;;
5167;SDS011;2603;48.918;8.980;2022-12-08T07:24:27;23.37;;;12.40;;
5167;SDS011;2603;48.918;8.980;2022-12-08T07:26:53;23.77;;;12.40;;
5167;SDS011;2603;48.918;8.980;2022-12-08T07:29:20;24.97;;;11.83;;
5167;SDS011;2603;48.918;8.980;2022-12-08T07:31:46;19.27;;;10.40;;
5167;SDS011;2603;48.918;8.980;2022-12-08T07:34:13;21.67;;;10.77;;
5167;SDS011;2603;48.918;8.980;2022-12-08T07:36:39;19.60;;;10.40;;
5167;SDS011;2603;48.918;8.980;2022-12-08T07:39:07;18.27;;;10.47;;
5167;SDS011;2603;48.918;8.980;2022-12-08T07:41:34;19.07;;;9.63;;
5167;SDS011;2603;48.918;8.980;2022-12-08T07:44:01;13.97;;;8.97;;
5167;SDS011;2603;48.918;8.980;2022-12-08T07:46:28;15.03;;;8.33;;
5167;SDS011;2603;48.918;8.980;2022-12-08T07:48:54;18.60;;;9.40;;
5167;SDS011;2603;48.918;8.980;2022-12-08T07:51:21;13.43;;;9.30;;
5167;SDS011;2603;48.918;8.980;2022-12-08T07:53:49;22.33;;;10.70;;
5167;SDS011;2603;48.918;8.980;2022-12-08T07:56:17;25.80;;;14.47;;
5167;SDS011;2603;48.918;8.980;2022-12-08T07:58:44;18.27;;;12.60;;
5167;SDS011;2603;48.918;8.980;2022-12-08T08:01:17;25.10;;;14.60;;
5167;SDS011;2603;48.918;8.980;2022-12-08T08:03:48;17.53;;;9.17;;
5167;SDS011;2603;48.918;8.980;2022-12-08T08:06:15;13.27;;;8.03;;
5167;SDS011;2603;48.918;8.980;2022-12-08T08:08:42;12.80;;;7.60;;
5167;SDS011;2603;48.918;8.980;2022-12-08T08:11:08;15.23;;;7.53;;
5167;SDS011;2603;48.918;8.980;2022-12-08T08:13:36;11.80;;;7.17;;
5167;SDS011;2603;48.918;8.980;2022-12-08T08:16:03;10.53;;;6.63;;
5167;SDS011;2603;48.918;8.980;2022-12-08T08:18:30;17.93;;;9.40;;
5167;SDS011;2603;48.918;8.980;2022-12-08T08:20:57;12.63;;;7.37;;
5167;SDS011;2603;48.918;8.980;2022-12-08T08:23:23;17.20;;;7.80;;
5167;SDS011;2603;48.918;8.980;2022-12-08T08:25:50;13.40;;;7.00;;
5167;SDS011;2603;48.918;8.980;2022-12-08T08:28:16;22.77;;;9.43;;
5167;SDS011;2603;48.918;8.980;2022-12-08T08:30:45;16.53;;;8.57;;
5167;SDS011;2603;48.918;8.980;2022-12-08T08:33:12;17.47;;;9.30;;
5167;SDS011;2603;48.918;8.980;2022-12-08T08:35:38;14.80;;;8.70;;
5167;SDS011;2603;48.918;8.980;2022-12-08T08:38:06;16.63;;;9.93;;
5167;SDS011;2603;48.918;8.980;2022-12-08T08:40:33;19.63;;;10.40;;
5167;SDS011;2603;48.918;8.980;2022-12-08T08:42:59;15.90;;;10.70;;
5167;SDS011;2603;48.918;8.980;2022-12-08T08:45:26;17.20;;;9.73;;
5167;SDS011;2603;48.918;8.980;2022-12-08T08:47:54;14.90;;;9.67;;
5167;SDS011;2603;48.918;8.980;2022-12-08T08:50:22;16.80;;;9.43;;
5167;SDS011;2603;48.918;8.980;2022-12-08T08:52:48;14.40;;;8.60;;
5167;SDS011;2603;48.918;8.980;2022-12-08T08:55:15;10.47;;;7.10;;
5167;SDS011;2603;48.918;8.980;2022-12-08T08:57:42;10.43;;;6.47;;
5167;SDS011;2603;48.918;8.980;2022-12-08T09:00:09;13.07;;;6.50;;
5167;SDS011;2603;48.918;8.980;2022-12-08T09:02:36;15.47;;;7.30;;
5167;SDS011;2603;48.918;8.980;2022-12-08T09:05:05;13.53;;;7.70;;
5167;SDS011;2603;48.918;8.980;2022-12-08T09:07:32;11.70;;;6.57;;
5167;SDS011;2603;48.918;8.980;2022-12-08T09:09:58;8.67;;;5.40;;
5167;SDS011;2603;48.918;8.980;2022-12-08T09:12:25;11.30;;;6.40;;
5167;SDS011;2603;48.918;8.980;2022-12-08T09:14:51;13.13;;;5.23;;
5167;SDS011;2603;48.918;8.980;2022-12-08T09:17:18;11.57;;;5.93;;
5167;SDS011;2603;48.918;8.980;2022-12-08T09:19:46;8.40;;;5.00;;
5167;SDS011;2603;48.918;8.980;2022-12-08T09:22:14;20.60;;;7.03;;
5167;SDS011;2603;48.918;8.980;2022-12-08T09:24:41;18.10;;;5.70;;
5167;SDS011;2603;48.918;8.980;2022-12-08T09:27:07;7.60;;;4.60;;
5167;SDS011;2603;48.918;8.980;2022-12-08T09:29:34;15.30;;;6.20;;
5167;SDS011;2603;48.918;8.980;2022-12-08T09:32:00;27.77;;;6.20;;
5167;SDS011;2603;48.918;8.980;2022-12-08T09:34:27;10.13;;;5.77;;
5167;SDS011;2603;48.918;8.980;2022-12-08T09:36:53;12.07;;;6.33;;
5167;SDS011;2603;48.918;8.980;2022-12-08T09:39:21;18.20;;;6.97;;
5167;SDS011;2603;48.918;8.980;2022-12-08T09:41:48;10.13;;;4.70;;
5167;SDS011;2603;48.918;8.980;2022-12-08T09:44:39;7.93;;;4.70;;
5167;SDS011;2603;48.918;8.980;2022-12-08T09:47:13;9.30;;;5.10;;
5167;SDS011;2603;48.918;8.980;2022-12-08T09:49:44;13.20;;;5.60;;
5167;SDS011;2603;48.918;8.980;2022-12-08T09:52:18;9.70;;;4.80;;
5167;SDS011;2603;48.918;8.980;2022-12-08T09:54:48;9.67;;;5.23;;
5167;SDS011;2603;48.918;8.980;2022-12-08T09:57:16;8.20;;;4.67;;
5167;SDS011;2603;48.918;8.980;2022-12-08T09:59:46;7.00;;;4.17;;
5167;SDS011;2603;48.918;8.980;2022-12-08T10:02:18;10.37;;;4.03;;
5167;SDS011;2603;48.918;8.980;2022-12-08T10:04:47;5.83;;;4.30;;
5167;SDS011;2603;48.918;8.980;2022-12-08T10:07:15;9.40;;;4.23;;
5167;SDS011;2603;48.918;8.980;2022-12-08T10:09:45;6.87;;;3.90;;
5167;SDS011;2603;48.918;8.980;2022-12-08T10:12:16;6.23;;;4.27;;
5167;SDS011;2603;48.918;8.980;2022-12-08T10:14:49;9.43;;;4.40;;
5167;SDS011;2603;48.918;8.980;2022-12-08T10:17:22;16.97;;;5.27;;
5167;SDS011;2603;48.918;8.980;2022-12-08T10:19:52;7.40;;;4.57;;
5167;SDS011;2603;48.918;8.980;2022-12-08T10:22:23;9.40;;;5.17;;
5167;SDS011;2603;48.918;8.980;2022-12-08T10:24:53;10.80;;;3.77;;
5167;SDS011;2603;48.918;8.980;2022-12-08T10:27:22;5.70;;;2.87;;
5167;SDS011;2603;48.918;8.980;2022-12-08T10:29:50;6.67;;;4.77;;
5167;SDS011;2603;48.918;8.980;2022-12-08T10:32:17;8.73;;;4.43;;
5167;SDS011;2603;48.918;8.980;2022-12-08T10:35:03;9.40;;;5.43;;
5167;SDS011;2603;48.918;8.980;2022-12-08T10:37:31;8.33;;;4.70;;
5167;SDS011;2603;48.918;8.980;2022-12-08T10:39:59;8.07;;;4.67;;
5167;SDS011;2603;48.918;8.980;2022-12-08T10:42:30;7.40;;;4.10;;
5167;SDS011;2603;48.918;8.980;2022-12-08T10:45:00;12.23;;;4.57;;
5167;SDS011;2603;48.918;8.980;2022-12-08T10:47:34;7.10;;;4.20;;
5167;SDS011;2603;48.918;8.980;2022-12-08T10:50:06;11.10;;;5.30;;
5167;SDS011;2603;48.918;8.980;2022-12-08T10:52:37;10.40;;;4.93;;
5167;SDS011;2603;48.918;8.980;2022-12-08T10:55:13;6.30;;;3.73;;
5167;SDS011;2603;48.918;8.980;2022-12-08T10:57:40;10.13;;;4.90;;
5167;SDS011;2603;48.918;8.980;2022-12-08T11:00:10;8.40;;;4.77;;
5167;SDS011;2603;48.918;8.980;2022-12-08T11:02:48;5.70;;;3.90;;
5167;SDS011;2603;48.918;8.980;2022-12-08T11:05:15;8.00;;;4.03;;
5167;SDS011;2603;48.918;8.980;2022-12-08T11:07:45;8.57;;;4.07;;
5167;SDS011;2603;48.918;8.980;2022-12-08T11:10:15;8.50;;;4.40;;
5167;SDS011;2603;48.918;8.980;2022-12-08T11:12:43;8.50;;;4.70;;
5167;SDS011;2603;48.918;8.980;2022-12-08T11:15:13;8.20;;;4.03;;
5167;SDS011;2603;48.918;8.980;2022-12-08T11:17:40;10.27;;;4.47;;
5167;SDS011;2603;48.918;8.980;2022-12-08T11:20:18;8.90;;;5.30;;
5167;SDS011;2603;48.918;8.980;2022-12-08T11:22:50;8.60;;;6.00;;
5167;SDS011;2603;48.918;8.980;2022-12-08T11:25:19;9.40;;;5.40;;
5167;SDS011;2603;48.918;8.980;2022-12-08T11:27:48;8.17;;;4.87;;
5167;SDS011;2603;48.918;8.980;2022-12-08T11:30:18;7.47;;;4.53;;
5167;SDS011;2603;48.918;8.980;2022-12-08T11:32:46;13.00;;;5.40;;
5167;SDS011;2603;48.918;8.980;2022-12-08T11:35:16;8.80;;;4.10;;
5167;SDS011;2603;48.918;8.980;2022-12-08T11:37:46;8.93;;;4.47;;
5167;SDS011;2603;48.918;8.980;2022-12-08T11:40:13;7.00;;;4.57;;
5167;SDS011;2603;48.918;8.980;2022-12-08T11:42:49;12.93;;;4.60;;
5167;SDS011;2603;48.918;8.980;2022-12-08T11:45:21;8.13;;;4.53;;
5167;SDS011;2603;48.918;8.980;2022-12-08T11:47:51;8.97;;;4.90;;
5167;SDS011;2603;48.918;8.980;2022-12-08T11:50:21;9.43;;;5.30;;
5167;SDS011;2603;48.918;8.980;2022-12-08T11:52:52;7.47;;;3.93;;
5167;SDS011;2603;48.918;8.980;2022-12-08T11:55:26;8.50;;;4.53;;
5167;SDS011;2603;48.918;8.980;2022-12-08T11:57:57;7.83;;;4.20;;
5167;SDS011;2603;48.918;8.980;2022-12-08T12:00:27;10.03;;;4.70;;
5167;SDS011;2603;48.918;8.980;2022-12-08T12:02:55;8.80;;;4.57;;
5167;SDS011;2603;48.918;8.980;2022-12-08T12:05:28;10.90;;;4.80;;
5167;SDS011;2603;48.918;8.980;2022-12-08T12:08:01;5.73;;;3.40;;
5167;SDS011;2603;48.918;8.980;2022-12-08T12:10:40;7.47;;;4.33;;
5167;SDS011;2603;48.918;8.980;2022-12-08T12:13:21;9.60;;;5.30;;
5167;SDS011;2603;48.918;8.980;2022-12-08T12:16:20;8.50;;;4.10;;
5167;SDS011;2603;48.918;8.980;2022-12-08T12:18:54;7.63;;;4.47;;
5167;SDS011;2603;48.918;8.980;2022-12-08T12:21:23;8.83;;;5.40;;
5167;SDS011;2603;48.918;8.980;2022-12-08T12:23:52;9.73;;;5.47;;
5167;SDS011;2603;48.918;8.980;2022-12-08T12:26:20;7.93;;;4.80;;
5167;SDS011;2603;48.918;8.980;2022-12-08T12:28:50;9.60;;;5.23;;
5167;SDS011;2603;48.918;8.980;2022-12-08T12:31:21;10.50;;;4.13;;
5167;SDS011;2603;48.918;8.980;2022-12-08T12:33:49;6.33;;;3.80;;
5167;SDS011;2603;48.918;8.980;2022-12-08T12:36:17;8.70;;;4.00;;
5167;SDS011;2603;48.918;8.980;2022-12-08T12:38:43;8.63;;;4.17;;
5167;SDS011;2603;48.918;8.980;2022-12-08T12:41:30;9.67;;;4.63;;
5167;SDS011;2603;48.918;8.980;2022-12-08T12:44:11;6.40;;;4.43;;
5167;SDS011;2603;48.918;8.980;2022-12-08T12:46:57;7.90;;;3.90;;
5167;SDS011;2603;48.918;8.980;2022-12-08T12:52:35;12.47;;;5.63;;
5167;SDS011;2603;48.918;8.980;2022-12-08T12:58:15;9.80;;;4.67;;
5167;SDS011;2603;48.918;8.980;2022-12-08T13:04:04;7.47;;;4.33;;
5167;SDS011;2603;48.918;8.980;2022-12-08T13:06:32;9.00;;;5.40;;
5167;SDS011;2603;48.918;8.980;2022-12-08T13:09:02;9.87;;;4.93;;
5167;SDS011;2603;48.918;8.980;2022-12-08T13:11:29;9.37;;;5.20;;
5167;SDS011;2603;48.918;8.980;2022-12-08T13:14:12;10.83;;;5.30;;
5167;SDS011;2603;48.918;8.980;2022-12-08T13:17:01;13.40;;;5.40;;
5167;SDS011;2603;48.918;8.980;2022-12-08T13:19:31;7.47;;;4.77;;
5167;SDS011;2603;48.918;8.980;2022-12-08T13:21:59;8.93;;;5.17;;
5167;SDS011;2603;48.918;8.980;2022-12-08T13:24:28;9.30;;;5.00;;
5167;SDS011;2603;48.918;8.980;2022-12-08T13:33:08;14.47;;;6.27;;
5167;SDS011;2603;48.918;8.980;2022-12-08T13:35:37;12.70;;;5.90;;
5167;SDS011;2603;48.918;8.980;2022-12-08T13:38:05;10.23;;;6.30;;
5167;SDS011;2603;48.918;8.980;2022-12-08T13:40:32;10.27;;;6.10;;
5167;SDS011;2603;48.918;8.980;2022-12-08T13:43:04;12.83;;;7.03;;
5167;SDS011;2603;48.918;8.980;2022-12-08T13:45:35;10.27;;;5.60;;
5167;SDS011;2603;48.918;8.980;2022-12-08T13:48:02;12.10;;;6.33;;
5167;SDS011;2603;48.918;8.980;2022-12-08T13:50:34;9.77;;;5.30;;
5167;SDS011;2603;48.918;8.980;2022-12-08T13:53:08;11.00;;;6.40;;
5167;SDS011;2603;48.918;8.980;2022-12-08T13:55:41;16.87;;;10.13;;
5167;SDS011;2603;48.918;8.980;2022-12-08T13:58:15;7.90;;;5.20;;
5167;SDS011;2603;48.918;8.980;2022-12-08T14:00:52;9.13;;;5.33;;
5167;SDS011;2603;48.918;8.980;2022-12-08T14:03:19;12.00;;;6.37;;
5167;SDS011;2603;48.918;8.980;2022-12-08T14:05:47;7.47;;;4.43;;
5167;SDS011;2603;48.918;8.980;2022-12-08T14:08:17;12.03;;;5.10;;
5167;SDS011;2603;48.918;8.980;2022-12-08T14:10:51;9.23;;;5.63;;
5167;SDS011;2603;48.918;8.980;2022-12-08T14:13:19;7.30;;;4.70;;
5167;SDS011;2603;48.918;8.980;2022-12-08T14:15:46;10.10;;;5.60;;
5167;SDS011;2603;48.918;8.980;2022-12-08T14:18:20;11.20;;;4.47;;
5167;SDS011;2603;48.918;8.980;2022-12-08T14:21:02;8.60;;;5.10;;
5167;SDS011;2603;48.918;8.980;2022-12-08T14:23:33;7.93;;;4.83;;
5167;SDS011;2603;48.918;8.980;2022-12-08T14:26:00;7.90;;;5.30;;
5167;SDS011;2603;48.918;8.980;2022-12-08T14:28:30;8.97;;;5.43;;
5167;SDS011;2603;48.918;8.980;2022-12-08T14:31:01;9.37;;;4.93;;
5167;SDS011;2603;48.918;8.980;2022-12-08T14:33:43;7.53;;;4.70;;
5167;SDS011;2603;48.918;8.980;2022-12-08T14:36:11;8.07;;;4.67;;
5167;SDS011;2603;48.918;8.980;2022-12-08T14:38:40;9.40;;;5.27;;
5167;SDS011;2603;48.918;8.980;2022-12-08T14:41:08;17.47;;;6.20;;
5167;SDS011;2603;48.918;8.980;2022-12-08T14:43:37;11.03;;;5.10;;
5167;SDS011;2603;48.918;8.980;2022-12-08T14:46:17;9.63;;;5.90;;
5167;SDS011;2603;48.918;8.980;2022-12-08T14:48:44;6.80;;;4.57;;
5167;SDS011;2603;48.918;8.980;2022-12-08T14:51:15;10.00;;;6.00;;
5167;SDS011;2603;48.918;8.980;2022-12-08T14:53:50;9.80;;;5.93;;
5167;SDS011;2603;48.918;8.980;2022-12-08T14:56:18;13.63;;;6.60;;
5167;SDS011;2603;48.918;8.980;2022-12-08T14:58:47;10.20;;;6.23;;
5167;SDS011;2603;48.918;8.980;2022-12-08T15:01:15;10.80;;;6.73;;
5167;SDS011;2603;48.918;8.980;2022-12-08T15:03:43;10.37;;;5.93;;
5167;SDS011;2603;48.918;8.980;2022-12-08T15:06:10;10.40;;;5.70;;
5167;SDS011;2603;48.918;8.980;2022-12-08T15:08:50;12.13;;;5.60;;
5167;SDS011;2603;48.918;8.980;2022-12-08T15:11:30;10.47;;;5.10;;
5167;SDS011;2603;48.918;8.980;2022-12-08T15:13:58;14.87;;;5.40;;
5167;SDS011;2603;48.918;8.980;2022-12-08T15:16:26;18.00;;;6.00;;
5167;SDS011;2603;48.918;8.980;2022-12-08T15:19:03;10.10;;;5.33;;
5167;SDS011;2603;48.918;8.980;2022-12-08T15:21:38;9.90;;;5.50;;
5167;SDS011;2603;48.918;8.980;2022-12-08T15:24:09;7.57;;;4.80;;
5167;SDS011;2603;48.918;8.980;2022-12-08T15:26:40;10.63;;;6.20;;
5167;SDS011;2603;48.918;8.980;2022-12-08T15:29:10;10.17;;;6.10;;
5167;SDS011;2603;48.918;8.980;2022-12-08T15:31:37;11.47;;;6.63;;